Time;durP1;ratioP1;P1;durP2;ratioP2;P2;SDS_P1;SDS_P2;PMS_P1;PMS_P2;Temp;Humidity;BMP_temperature;BMP_pressure;BME280_temperature;BME280_humidity;BME280_pressure;Samples;Min_cycle;Max_cycle;Signal;HPM_P1;HPM_P2
2021/11/14 00:02:12;;;;;;;;;;;;;;;;;;5019771;28;19925;-76
2021/11/14 00:04:38;;;;;;;;;;;;;;;;;;5010754;28;19967;-76
2021/11/14 00:07:04;;;;;;;;;;;;;;;;;;5014502;28;19909;-76
2021/11/14 00:09:30;;;;;;;;;;;;;;;;;;5029185;28;20371;-77
2021/11/14 00:11:56;;;;;;;;;;;;;;;;;;5030505;28;19909;-76
2021/11/14 00:14:22;;;;;;;;;;;;;;;;;;5030206;28;19913;-77
2021/11/14 00:16:48;;;;;;;;;;;;;;;;;;5028543;28;19936;-76
2021/11/14 00:19:14;;;;;;;;;;;;;;;;;;5028043;28;20003;-76
2021/11/14 00:21:43;;;;;;;;;;;;;;;;;;5028942;28;19964;-76
2021/11/14 00:24:09;;;;;;;;;;;;;;;;;;5029676;28;20361;-76
2021/11/14 00:26:35;;;;;;;;;;;;;;;;;;5026622;28;19916;-76
2021/11/14 00:29:00;;;;;;;;;;;;;;;;;;5016025;28;20390;-76
2021/11/14 00:31:26;;;;;;;;;;;;;;;;;;5008981;28;19913;-76
2021/11/14 00:33:52;;;;;;;;;;;;;;;;;;5008618;28;19918;-77
2021/11/14 00:36:18;;;;;;;;;;;;;;;;;;5011565;28;19936;-77
2021/11/14 00:38:44;;;;;;;;;;;;;;;;;;5010085;28;19914;-75
2021/11/14 00:41:10;;;;;;;;;;;;;;;;;;5010043;28;19913;-76
2021/11/14 00:43:36;;;;;;;;;;;;;;;;;;5008517;28;19924;-76
2021/11/14 00:46:02;;;;;;;;;;;;;;;;;;5009394;28;20366;-75
2021/11/14 00:48:28;;;;;;;;;;;;;;;;;;5009002;28;20105;-76
2021/11/14 00:50:53;;;;;;;;;;;;;;;;;;5008151;28;19920;-76
2021/11/14 00:53:19;;;;;;;;;;;;;;;;;;5019927;28;19913;-76
2021/11/14 00:55:45;;;;;;;;;;;;;;;;;;5027389;28;20389;-78
2021/11/14 00:58:11;;;;;;;;;;;;;;;;;;5027804;28;19999;-77
2021/11/14 01:00:37;;;;;;;;;;;;;;;;;;5020780;28;19920;-76
2021/11/14 01:03:03;;;;;;;;;;;;;;;;;;5013301;28;19913;-76
2021/11/14 01:05:29;;;;;;;;;;;;;;;;;;5027877;28;19909;-77
2021/11/14 01:07:55;;;;;;;;;;;;;;;;;;5018845;28;19917;-75
2021/11/14 01:10:21;;;;;;;;;;;;;;;;;;5008010;28;19917;-75
2021/11/14 01:12:47;;;;;;;;;;;;;;;;;;5007752;28;19964;-76
2021/11/14 01:15:12;;;;;;;;;;;;;;;;;;5007797;28;19963;-76
2021/11/14 01:17:39;;;;;;;;;;;;;;;;;;5009334;28;19916;-76
2021/11/14 01:20:04;;;;;;;;;;;;;;;;;;5008967;28;19921;-76
2021/11/14 01:22:30;;;;;;;;;;;;;;;;;;5009686;28;19909;-77
2021/11/14 01:24:56;;;;;;;;;;;;;;;;;;5006912;28;20493;-76
2021/11/14 01:27:22;;;;;;;;;;;;;;;;;;5008887;28;19997;-76
2021/11/14 01:29:48;;;;;;;;;;;;;;;;;;5026384;28;19921;-77
2021/11/14 01:32:14;;;;;;;;;;;;;;;;;;5028808;28;19913;-76
2021/11/14 01:34:40;;;;;;;;;;;;;;;;;;5016360;28;20007;-76
2021/11/14 01:37:06;;;;;;;;;;;;;;;;;;5027205;28;20360;-76
2021/11/14 01:39:32;;;;;;;;;;;;;;;;;;5011545;28;19913;-75
2021/11/14 01:41:58;;;;;;;;;;;;;;;;;;5024399;28;19920;-76
2021/11/14 01:44:24;;;;;;;;;;;;;;;;;;5025392;28;19917;-76
2021/11/14 01:46:51;;;;;;;;;;;;;;;;;;5026541;28;20008;-75
2021/11/14 01:49:18;;;;;;;;;;;;;;;;;;5028148;28;19924;-76
2021/11/14 01:51:44;;;;;;;;;;;;;;;;;;5026793;28;19958;-76
2021/11/14 01:54:10;;;;;;;;;;;;;;;;;;5023742;28;19913;-76
2021/11/14 01:56:37;;;;;;;;;;;;;;;;;;5006514;28;19918;-76
2021/11/14 01:59:03;;;;;;;;;;;;;;;;;;5008686;28;19914;-75
2021/11/14 02:01:30;;;;;;;;;;;;;;;;;;5007384;28;20385;-75
2021/11/14 02:03:56;;;;;;;;;;;;;;;;;;5006922;28;19913;-77
2021/11/14 02:06:22;;;;;;;;;;;;;;;;;;5007218;28;19921;-75
2021/11/14 02:08:47;;;;;;;;;;;;;;;;;;5007426;28;20396;-75
2021/11/14 02:11:16;;;;;;;;;;;;;;;;;;5006697;28;19921;-75
2021/11/14 02:13:42;;;;;;;;;;;;;;;;;;5017542;28;19936;-77
2021/11/14 02:16:08;;;;;;;;;;;;;;;;;;5025579;28;20300;-75
2021/11/14 02:18:34;;;;;;;;;;;;;;;;;;5015085;28;19914;-76
2021/11/14 02:21:00;;;;;;;;;;;;;;;;;;5007007;28;20004;-76
2021/11/14 02:23:26;;;;;;;;;;;;;;;;;;5006530;28;19914;-77
2021/11/14 02:25:52;;;;;;;;;;;;;;;;;;5021271;28;20381;-77
2021/11/14 02:28:18;;;;;;;;;;;;;;;;;;5025837;28;19975;-76
2021/11/14 02:30:44;;;;;;;;;;;;;;;;;;5026319;28;20340;-76
2021/11/14 02:33:09;;;;;;;;;;;;;;;;;;5025617;28;19917;-76
2021/11/14 02:35:35;;;;;;;;;;;;;;;;;;5007524;28;19952;-78
2021/11/14 02:38:01;;;;;;;;;;;;;;;;;;5006219;28;19920;-78
2021/11/14 02:40:27;;;;;;;;;;;;;;;;;;5006348;28;20602;-76
2021/11/14 02:42:53;;;;;;;;;;;;;;;;;;5007154;28;19951;-77
2021/11/14 02:45:19;;;;;;;;;;;;;;;;;;5006662;28;20259;-77
2021/11/14 02:47:45;;;;;;;;;;;;;;;;;;5007775;28;19917;-76
2021/11/14 02:50:11;;;;;;;;;;;;;;;;;;5007709;28;19921;-76
2021/11/14 02:52:36;;;;;;;;;;;;;;;;;;5019766;28;19945;-77
2021/11/14 02:55:02;;;;;;;;;;;;;;;;;;5025677;28;20216;-75
2021/11/14 02:57:28;;;;;;;;;;;;;;;;;;5025730;28;19913;-76
2021/11/14 02:59:55;;;;;;;;;;;;;;;;;;5026075;28;19936;-76
2021/11/14 03:02:21;;;;;;;;;;;;;;;;;;5026744;28;19913;-76
2021/11/14 03:04:47;;;;;;;;;;;;;;;;;;5026167;28;19913;-77
2021/11/14 03:07:13;;;;;;;;;;;;;;;;;;5027607;28;19913;-75
2021/11/14 03:09:38;;;;;;;;;;;;;;;;;;5010578;28;20011;-76
2021/11/14 03:12:04;;;;;;;;;;;;;;;;;;5006208;28;19914;-76
2021/11/14 03:14:30;;;;;;;;;;;;;;;;;;5010604;28;19997;-76
2021/11/14 03:16:56;;;;;;;;;;;;;;;;;;5026855;28;20144;-76
2021/11/14 03:19:22;;;;;;;;;;;;;;;;;;5025891;28;20551;-77
2021/11/14 03:21:48;;;;;;;;;;;;;;;;;;5025848;28;19909;-77
2021/11/14 03:24:14;;;;;;;;;;;;;;;;;;5025600;28;20366;-77
2021/11/14 03:26:40;;;;;;;;;;;;;;;;;;5008541;28;19975;-76
2021/11/14 03:29:06;;;;;;;;;;;;;;;;;;5016771;28;20305;-77
2021/11/14 03:31:32;;;;;;;;;;;;;;;;;;5007471;28;19913;-77
2021/11/14 03:33:57;;;;;;;;;;;;;;;;;;5006760;28;20337;-77
2021/11/14 03:36:23;;;;;;;;;;;;;;;;;;5025996;28;19963;-75
2021/11/14 03:38:49;;;;;;;;;;;;;;;;;;5019402;28;19913;-76
2021/11/14 03:41:15;;;;;;;;;;;;;;;;;;5025807;28;19967;-75
2021/11/14 03:43:41;;;;;;;;;;;;;;;;;;5011803;28;20098;-76
2021/11/14 03:46:07;;;;;;;;;;;;;;;;;;5011796;28;19913;-77
2021/11/14 03:48:33;;;;;;;;;;;;;;;;;;5016426;28;19929;-76
2021/11/14 03:50:59;;;;;;;;;;;;;;;;;;5007162;28;19914;-77
2021/11/14 03:53:24;;;;;;;;;;;;;;;;;;5013585;28;20000;-76
2021/11/14 03:55:50;;;;;;;;;;;;;;;;;;5025685;28;19910;-79
2021/11/14 03:58:16;;;;;;;;;;;;;;;;;;5009332;28;19917;-77
2021/11/14 04:00:42;;;;;;;;;;;;;;;;;;5019916;28;19914;-76
2021/11/14 04:03:08;;;;;;;;;;;;;;;;;;5011227;28;19914;-75
2021/11/14 04:05:34;;;;;;;;;;;;;;;;;;5009513;28;19960;-77
2021/11/14 04:08:00;;;;;;;;;;;;;;;;;;5012593;28;20128;-76
2021/11/14 04:10:26;;;;;;;;;;;;;;;;;;5029041;28;19921;-76
2021/11/14 04:12:52;;;;;;;;;;;;;;;;;;5026664;28;19963;-76
2021/11/14 04:15:17;;;;;;;;;;;;;;;;;;5009348;28;20000;-76
2021/11/14 04:17:43;;;;;;;;;;;;;;;;;;5026155;28;19917;-76
2021/11/14 04:20:09;;;;;;;;;;;;;;;;;;5012859;28;19921;-75
2021/11/14 04:22:35;;;;;;;;;;;;;;;;;;5009051;28;19967;-76
2021/11/14 04:25:01;;;;;;;;;;;;;;;;;;5024432;28;19959;-77
2021/11/14 04:27:27;;;;;;;;;;;;;;;;;;5022041;28;20373;-76
2021/11/14 04:29:53;;;;;;;;;;;;;;;;;;5026867;28;19921;-76
2021/11/14 04:32:19;;;;;;;;;;;;;;;;;;5009340;28;20020;-76
2021/11/14 04:34:44;;;;;;;;;;;;;;;;;;5023330;28;19996;-76
2021/11/14 04:37:10;;;;;;;;;;;;;;;;;;5028780;28;20244;-77
2021/11/14 04:39:36;;;;;;;;;;;;;;;;;;5027421;28;20366;-75
2021/11/14 04:42:07;;;;;;;;;;;;;;;;;;5008726;28;19994;-78
2021/11/14 04:44:33;;;;;;;;;;;;;;;;;;5008723;28;20393;-75
2021/11/14 04:46:59;;;;;;;;;;;;;;;;;;5013743;28;19953;-76
2021/11/14 04:49:25;;;;;;;;;;;;;;;;;;5009584;28;20392;-76
2021/11/14 04:51:51;;;;;;;;;;;;;;;;;;5009175;28;19933;-77
2021/11/14 04:54:17;;;;;;;;;;;;;;;;;;5008696;28;20298;-76
2021/11/14 04:56:43;;;;;;;;;;;;;;;;;;5008126;28;19909;-76
2021/11/14 04:59:09;;;;;;;;;;;;;;;;;;5022630;28;19924;-76
2021/11/14 05:01:34;;;;;;;;;;;;;;;;;;5016411;28;20282;-76
2021/11/14 05:04:00;;;;;;;;;;;;;;;;;;5019636;28;20012;-77
2021/11/14 05:06:26;;;;;;;;;;;;;;;;;;5028964;28;20389;-76
2021/11/14 05:08:52;;;;;;;;;;;;;;;;;;5018275;28;19917;-75
2021/11/14 05:11:18;;;;;;;;;;;;;;;;;;5009375;28;19953;-76
2021/11/14 05:13:44;;;;;;;;;;;;;;;;;;5018495;28;20298;-77
2021/11/14 05:16:10;;;;;;;;;;;;;;;;;;5020889;28;19921;-76
2021/11/14 05:18:36;;;;;;;;;;;;;;;;;;5007961;28;19967;-77
2021/11/14 05:21:02;;;;;;;;;;;;;;;;;;5008148;28;19996;-76
2021/11/14 05:23:27;;;;;;;;;;;;;;;;;;5008056;28;19910;-77
2021/11/14 05:25:53;;;;;;;;;;;;;;;;;;5008030;28;20370;-76
2021/11/14 05:28:19;;;;;;;;;;;;;;;;;;5007431;28;19931;-77
2021/11/14 05:30:45;;;;;;;;;;;;;;;;;;5017060;28;19921;-77
2021/11/14 05:33:11;;;;;;;;;;;;;;;;;;5027584;28;19913;-76
2021/11/14 05:35:37;;;;;;;;;;;;;;;;;;5027763;28;20281;-76
2021/11/14 05:38:03;;;;;;;;;;;;;;;;;;5011323;28;19964;-76
2021/11/14 05:40:29;;;;;;;;;;;;;;;;;;5022403;28;19909;-76
2021/11/14 05:42:55;;;;;;;;;;;;;;;;;;5010074;28;19921;-77
2021/11/14 05:45:21;;;;;;;;;;;;;;;;;;5007997;28;20552;-77
2021/11/14 05:47:47;;;;;;;;;;;;;;;;;;5008645;28;19941;-77
2021/11/14 05:50:12;;;;;;;;;;;;;;;;;;5020753;28;19917;-76
2021/11/14 05:52:38;;;;;;;;;;;;;;;;;;5019352;28;19919;-76
2021/11/14 05:55:04;;;;;;;;;;;;;;;;;;5028009;28;19966;-76
2021/11/14 05:57:37;;;;;;;;;;;;;;;;;;5028098;28;20411;-76
2021/11/14 06:00:07;;;;;;;;;;;;;;;;;;5026117;28;20002;-77
2021/11/14 06:07:31;;;;;;;;;;;;;;;;;;5009286;28;20390;-77
2021/11/14 06:09:57;;;;;;;;;;;;;;;;;;5007563;28;19917;-76
2021/11/14 06:12:23;;;;;;;;;;;;;;;;;;5007362;28;20013;-76
2021/11/14 06:14:49;;;;;;;;;;;;;;;;;;5007549;28;19996;-75
2021/11/14 06:17:17;;;;;;;;;;;;;;;;;;5007294;28;19925;-76
2021/11/14 06:19:43;;;;;;;;;;;;;;;;;;5019983;28;19920;-75
2021/11/14 06:22:09;;;;;;;;;;;;;;;;;;5027656;28;19909;-76
2021/11/14 06:24:35;;;;;;;;;;;;;;;;;;5027353;28;19910;-75
2021/11/14 06:27:02;;;;;;;;;;;;;;;;;;5024881;28;19936;-76
2021/11/14 06:29:28;;;;;;;;;;;;;;;;;;5020264;28;20374;-77
2021/11/14 06:31:54;;;;;;;;;;;;;;;;;;5012648;28;20186;-77
2021/11/14 06:34:20;;;;;;;;;;;;;;;;;;5024441;28;20313;-76
2021/11/14 06:36:45;;;;;;;;;;;;;;;;;;5009059;28;19917;-76
2021/11/14 06:39:11;;;;;;;;;;;;;;;;;;5007331;28;19928;-76
2021/11/14 06:41:37;;;;;;;;;;;;;;;;;;5006833;28;20417;-76
2021/11/14 06:44:03;;;;;;;;;;;;;;;;;;5018478;28;19917;-77
2021/11/14 06:46:29;;;;;;;;;;;;;;;;;;5011387;28;20351;-76
2021/11/14 06:48:55;;;;;;;;;;;;;;;;;;5008747;28;19917;-76
2021/11/14 06:51:21;;;;;;;;;;;;;;;;;;5023974;28;19935;-75
2021/11/14 06:53:46;;;;;;;;;;;;;;;;;;5007152;28;20366;-76
2021/11/14 06:56:12;;;;;;;;;;;;;;;;;;5005208;28;19910;-76
2021/11/14 06:58:38;;;;;;;;;;;;;;;;;;5006911;28;19909;-77
2021/11/14 07:01:04;;;;;;;;;;;;;;;;;;5013429;28;19953;-77
2021/11/14 07:03:30;;;;;;;;;;;;;;;;;;5026998;28;20292;-76
2021/11/14 07:05:56;;;;;;;;;;;;;;;;;;5023717;28;19917;-75
2021/11/14 07:08:22;;;;;;;;;;;;;;;;;;5017596;28;20259;-76
2021/11/14 07:10:48;;;;;;;;;;;;;;;;;;5008356;28;19914;-75
2021/11/14 07:13:14;;;;;;;;;;;;;;;;;;5007021;28;19932;-77
2021/11/14 07:15:39;;;;;;;;;;;;;;;;;;5008244;28;20314;-75
2021/11/14 07:18:05;;;;;;;;;;;;;;;;;;5007861;28;20294;-75
2021/11/14 07:20:31;;;;;;;;;;;;;;;;;;5011489;28;19917;-76
2021/11/14 07:22:57;;;;;;;;;;;;;;;;;;5024751;28;19927;-76
2021/11/14 07:25:23;;;;;;;;;;;;;;;;;;5005161;28;19910;-75
2021/11/14 07:27:49;;;;;;;;;;;;;;;;;;5007764;28;20862;-77
2021/11/14 07:30:15;;;;;;;;;;;;;;;;;;5011209;28;19972;-77
2021/11/14 07:32:41;;;;;;;;;;;;;;;;;;5024781;28;19953;-77
2021/11/14 07:35:07;;;;;;;;;;;;;;;;;;5010295;28;19914;-76
2021/11/14 07:37:32;;;;;;;;;;;;;;;;;;5011022;28;19914;-76
2021/11/14 07:39:58;;;;;;;;;;;;;;;;;;5028824;28;20358;-76
2021/11/14 07:42:24;;;;;;;;;;;;;;;;;;5027772;28;19919;-76
2021/11/14 07:44:50;;;;;;;;;;;;;;;;;;5015847;28;20282;-75
2021/11/14 07:47:16;;;;;;;;;;;;;;;;;;5027158;28;19943;-76
2021/11/14 07:49:42;;;;;;;;;;;;;;;;;;5030124;28;20404;-76
2021/11/14 07:52:08;;;;;;;;;;;;;;;;;;5030306;28;20012;-76
2021/11/14 07:54:34;;;;;;;;;;;;;;;;;;5030394;28;19939;-75
2021/11/14 07:56:59;;;;;;;;;;;;;;;;;;5027575;28;19909;-77
2021/11/14 07:59:26;;;;;;;;;;;;;;;;;;5019123;28;19913;-76
2021/11/14 08:01:52;;;;;;;;;;;;;;;;;;5012613;28;19913;-77
2021/11/14 08:04:18;;;;;;;;;;;;;;;;;;5010451;28;20385;-76
2021/11/14 08:06:44;;;;;;;;;;;;;;;;;;5010089;28;20354;-76
2021/11/14 08:09:10;;;;;;;;;;;;;;;;;;5010123;28;19960;-76
2021/11/14 08:11:36;;;;;;;;;;;;;;;;;;5011979;28;20315;-76
2021/11/14 08:14:02;;;;;;;;;;;;;;;;;;5021897;28;19913;-79
2021/11/14 08:16:28;;;;;;;;;;;;;;;;;;5010611;28;20190;-77
2021/11/14 08:18:53;;;;;;;;;;;;;;;;;;5010627;28;19914;-76
2021/11/14 08:21:19;;;;;;;;;;;;;;;;;;5012804;28;19956;-75
2021/11/14 08:23:45;;;;;;;;;;;;;;;;;;5015081;28;19924;-76
2021/11/14 08:26:11;;;;;;;;;;;;;;;;;;5021415;28;19913;-76
2021/11/14 08:28:37;;;;;;;;;;;;;;;;;;5029591;28;19929;-77
2021/11/14 08:31:03;;;;;;;;;;;;;;;;;;5010824;28;20408;-77
2021/11/14 08:33:30;;;;;;;;;;;;;;;;;;5012586;28;20365;-77
2021/11/14 08:35:59;;;;;;;;;;;;;;;;;;5030525;28;20385;-77
2021/11/14 08:38:26;;;;;;;;;;;;;;;;;;5031358;28;20266;-78
2021/11/14 08:40:54;;;;;;;;;;;;;;;;;;5031705;28;19931;-76
2021/11/14 08:43:20;;;;;;;;;;;;;;;;;;5031817;28;19909;-78
2021/11/14 08:45:47;;;;;;;;;;;;;;;;;;5030035;28;19924;-75
2021/11/14 08:48:14;;;;;;;;;;;;;;;;;;5023264;28;20393;-78
2021/11/14 08:50:40;;;;;;;;;;;;;;;;;;5011007;28;20273;-77
2021/11/14 08:53:06;;;;;;;;;;;;;;;;;;5010424;28;19928;-76
2021/11/14 08:55:32;;;;;;;;;;;;;;;;;;5018951;28;19921;-75
2021/11/14 08:57:58;;;;;;;;;;;;;;;;;;5011065;28;19910;-77
2021/11/14 09:00:24;;;;;;;;;;;;;;;;;;5015024;28;19921;-77
2021/11/14 09:02:50;;;;;;;;;;;;;;;;;;5010901;28;20255;-78
2021/11/14 09:05:17;;;;;;;;;;;;;;;;;;5026953;28;19928;-76
2021/11/14 09:07:43;;;;;;;;;;;;;;;;;;5009911;28;19910;-77
2021/11/14 09:10:14;;;;;;;;;;;;;;;;;;5009687;28;20343;-78
2021/11/14 09:12:40;;;;;;;;;;;;;;;;;;5009644;28;20004;-77
2021/11/14 09:15:06;;;;;;;;;;;;;;;;;;5014519;28;20008;-76
2021/11/14 09:17:32;;;;;;;;;;;;;;;;;;5008706;28;19971;-77
2021/11/14 09:19:58;;;;;;;;;;;;;;;;;;5011581;28;20008;-77
2021/11/14 09:22:24;;;;;;;;;;;;;;;;;;5022928;28;19909;-78
2021/11/14 09:24:50;;;;;;;;;;;;;;;;;;5008745;28;19910;-77
2021/11/14 09:27:15;;;;;;;;;;;;;;;;;;5008196;28;19921;-78
2021/11/14 09:29:41;;;;;;;;;;;;;;;;;;5027647;28;20356;-76
2021/11/14 09:32:07;;;;;;;;;;;;;;;;;;5028640;28;20033;-76
2021/11/14 09:34:33;;;;;;;;;;;;;;;;;;5030416;28;19916;-78
2021/11/14 09:36:59;;;;;;;;;;;;;;;;;;5028193;28;19911;-77
2021/11/14 09:39:25;;;;;;;;;;;;;;;;;;5020253;28;19909;-76
2021/11/14 09:41:51;;;;;;;;;;;;;;;;;;5022307;28;19913;-77
2021/11/14 09:44:17;;;;;;;;;;;;;;;;;;5029428;28;20055;-79
2021/11/14 09:46:43;;;;;;;;;;;;;;;;;;5026910;28;19913;-76
2021/11/14 09:49:09;;;;;;;;;;;;;;;;;;5029551;28;19924;-76
2021/11/14 09:51:35;;;;;;;;;;;;;;;;;;5028639;28;19983;-79
2021/11/14 09:54:01;;;;;;;;;;;;;;;;;;5026919;28;19925;-77
2021/11/14 09:56:27;;;;;;;;;;;;;;;;;;5025593;28;20393;-77
2021/11/14 09:58:53;;;;;;;;;;;;;;;;;;5026289;28;20166;-76
2021/11/14 10:01:18;;;;;;;;;;;;;;;;;;5027563;28;20464;-77
2021/11/14 10:03:45;;;;;;;;;;;;;;;;;;5027631;28;19913;-76
2021/11/14 10:06:11;;;;;;;;;;;;;;;;;;5028142;28;19963;-77
2021/11/14 10:08:37;;;;;;;;;;;;;;;;;;5027497;28;19913;-76
2021/11/14 10:11:03;;;;;;;;;;;;;;;;;;5025914;28;19917;-78
2021/11/14 10:13:29;;;;;;;;;;;;;;;;;;5026218;28;19967;-77
2021/11/14 10:15:56;;;;;;;;;;;;;;;;;;5010547;28;19917;-78
2021/11/14 10:18:22;;;;;;;;;;;;;;;;;;5009241;28;20365;-75
2021/11/14 10:20:51;;;;;;;;;;;;;;;;;;5002538;28;19909;-76
2021/11/14 10:23:17;;;;;;;;;;;;;;;;;;4991501;28;19963;-78
2021/11/14 10:25:42;;;;;;;;;;;;;;;;;;5003488;28;19910;-76
2021/11/14 10:28:09;;;;;;;;;;;;;;;;;;5008736;28;19971;-77
2021/11/14 10:30:38;;;;;;;;;;;;;;;;;;5014463;28;19918;-77
2021/11/14 10:33:05;;;;;;;;;;;;;;;;;;5029115;28;20282;-77
2021/11/14 10:35:31;;;;;;;;;;;;;;;;;;5029089;28;19996;-77
2021/11/14 10:37:57;;;;;;;;;;;;;;;;;;5030086;28;19906;-75
2021/11/14 10:40:23;;;;;;;;;;;;;;;;;;5020455;28;19920;-77
2021/11/14 10:42:49;;;;;;;;;;;;;;;;;;5008676;28;19914;-76
2021/11/14 10:45:18;;;;;;;;;;;;;;;;;;5024696;28;20015;-77
2021/11/14 10:47:44;;;;;;;;;;;;;;;;;;5030034;28;19917;-77
2021/11/14 10:50:11;;;;;;;;;;;;;;;;;;5027925;28;20114;-76
2021/11/14 10:52:40;;;;;;;;;;;;;;;;;;5028198;28;19913;-77
2021/11/14 10:55:05;;;;;;;;;;;;;;;;;;5026160;28;19917;-75
2021/11/14 10:57:31;;;;;;;;;;;;;;;;;;5022084;28;19916;-77
2021/11/14 10:59:57;;;;;;;;;;;;;;;;;;5008181;28;19910;-78
2021/11/14 11:02:24;;;;;;;;;;;;;;;;;;5009144;28;19939;-78
2021/11/14 11:04:50;;;;;;;;;;;;;;;;;;5021085;28;20381;-77
2021/11/14 11:07:15;;;;;;;;;;;;;;;;;;5032170;28;19913;-77
2021/11/14 11:09:43;;;;;;;;;;;;;;;;;;5031787;28;19917;-76
2021/11/14 11:12:08;;;;;;;;;;;;;;;;;;5031136;28;20050;-77
2021/11/14 11:14:36;;;;;;;;;;;;;;;;;;5031372;28;20326;-77
2021/11/14 11:17:02;;;;;;;;;;;;;;;;;;5025181;28;19909;-77
2021/11/14 11:19:28;;;;;;;;;;;;;;;;;;5028303;28;19909;-78
2021/11/14 11:21:54;;;;;;;;;;;;;;;;;;5023505;28;19917;-78
2021/11/14 11:24:20;;;;;;;;;;;;;;;;;;5011601;28;20370;-76
2021/11/14 11:26:47;;;;;;;;;;;;;;;;;;5018286;28;19936;-76
2021/11/14 11:29:13;;;;;;;;;;;;;;;;;;5032886;28;20293;-77
2021/11/14 11:31:42;;;;;;;;;;;;;;;;;;5022736;28;20125;-79
2021/11/14 11:34:08;;;;;;;;;;;;;;;;;;5023378;28;19948;-77
2021/11/14 11:36:39;;;;;;;;;;;;;;;;;;5031166;28;20377;-76
2021/11/14 11:39:05;;;;;;;;;;;;;;;;;;5023693;28;19913;-76
2021/11/14 11:41:31;;;;;;;;;;;;;;;;;;5032463;28;20444;-76
2021/11/14 11:43:57;;;;;;;;;;;;;;;;;;5032798;28;19909;-76
2021/11/14 11:46:23;;;;;;;;;;;;;;;;;;5031030;28;19921;-76
2021/11/14 11:48:49;;;;;;;;;;;;;;;;;;5024508;28;19964;-76
2021/11/14 11:51:15;;;;;;;;;;;;;;;;;;5016899;28;19921;-76
2021/11/14 11:53:40;;;;;;;;;;;;;;;;;;5013712;28;19960;-76
2021/11/14 11:56:06;;;;;;;;;;;;;;;;;;5020067;28;19909;-76
2021/11/14 11:58:32;;;;;;;;;;;;;;;;;;5030876;28;20373;-77
2021/11/14 12:00:59;;;;;;;;;;;;;;;;;;5031012;28;19910;-76
2021/11/14 12:03:24;;;;;;;;;;;;;;;;;;5031166;28;20362;-77
2021/11/14 12:05:50;;;;;;;;;;;;;;;;;;5015844;28;19920;-78
2021/11/14 12:08:16;;;;;;;;;;;;;;;;;;5012280;28;20004;-76
2021/11/14 12:10:44;;;;;;;;;;;;;;;;;;5013444;28;19924;-78
2021/11/14 12:13:12;;;;;;;;;;;;;;;;;;5012052;28;19913;-76
2021/11/14 12:15:39;;;;;;;;;;;;;;;;;;5011579;28;19957;-77
2021/11/14 12:18:05;;;;;;;;;;;;;;;;;;5011336;28;19909;-78
2021/11/14 12:20:31;;;;;;;;;;;;;;;;;;5012715;28;19909;-77
2021/11/14 12:22:57;;;;;;;;;;;;;;;;;;5011036;28;19913;-77
2021/11/14 12:25:23;;;;;;;;;;;;;;;;;;5010679;28;19980;-76
2021/11/14 12:27:48;;;;;;;;;;;;;;;;;;5011720;28;19941;-76
2021/11/14 12:30:17;;;;;;;;;;;;;;;;;;5012426;28;19919;-77
2021/11/14 12:32:43;;;;;;;;;;;;;;;;;;5010981;28;20281;-77
2021/11/14 12:35:09;;;;;;;;;;;;;;;;;;5012160;28;19945;-76
2021/11/14 12:37:35;;;;;;;;;;;;;;;;;;5012966;28;20404;-77
2021/11/14 12:40:01;;;;;;;;;;;;;;;;;;5011748;28;20112;-75
2021/11/14 12:42:27;;;;;;;;;;;;;;;;;;5009745;28;20402;-76
2021/11/14 12:44:53;;;;;;;;;;;;;;;;;;5010947;28;19920;-77
2021/11/14 12:47:19;;;;;;;;;;;;;;;;;;5012717;28;20374;-79
2021/11/14 12:49:47;;;;;;;;;;;;;;;;;;5012922;28;19918;-76
2021/11/14 12:52:13;;;;;;;;;;;;;;;;;;5013097;28;20278;-77
2021/11/14 12:54:39;;;;;;;;;;;;;;;;;;5011748;28;19910;-79
2021/11/14 12:57:05;;;;;;;;;;;;;;;;;;5010172;28;19910;-77
2021/11/14 12:59:31;;;;;;;;;;;;;;;;;;5011886;28;20398;-77
2021/11/14 13:01:57;;;;;;;;;;;;;;;;;;5010673;28;19957;-76
2021/11/14 13:04:24;;;;;;;;;;;;;;;;;;5011364;28;19913;-78
2021/11/14 13:06:51;;;;;;;;;;;;;;;;;;5012537;28;19910;-78
2021/11/14 13:09:19;;;;;;;;;;;;;;;;;;5010977;28;19921;-77
2021/11/14 13:11:45;;;;;;;;;;;;;;;;;;5010331;28;19913;-78
2021/11/14 13:14:11;;;;;;;;;;;;;;;;;;5010284;28;19909;-78
2021/11/14 13:16:37;;;;;;;;;;;;;;;;;;5010553;28;19917;-76
2021/11/14 13:19:05;;;;;;;;;;;;;;;;;;5010957;28;19910;-78
2021/11/14 13:21:35;;;;;;;;;;;;;;;;;;5025017;28;19909;-77
2021/11/14 13:24:01;;;;;;;;;;;;;;;;;;5030250;28;20277;-77
2021/11/14 13:26:29;;;;;;;;;;;;;;;;;;5028932;28;19916;-77
2021/11/14 13:28:55;;;;;;;;;;;;;;;;;;5030173;28;20289;-76
2021/11/14 13:31:21;;;;;;;;;;;;;;;;;;5030388;28;19909;-77
2021/11/14 13:33:47;;;;;;;;;;;;;;;;;;5028454;28;19920;-78
2021/11/14 13:36:18;;;;;;;;;;;;;;;;;;5014242;28;19919;-76
2021/11/14 13:38:49;;;;;;;;;;;;;;;;;;5015428;28;19959;-77
2021/11/14 13:41:14;;;;;;;;;;;;;;;;;;5011304;28;20325;-78
2021/11/14 13:43:40;;;;;;;;;;;;;;;;;;5010116;28;19914;-77
2021/11/14 13:46:09;;;;;;;;;;;;;;;;;;5018448;28;20577;-78
2021/11/14 13:48:35;;;;;;;;;;;;;;;;;;5023996;28;19920;-76
2021/11/14 13:51:01;;;;;;;;;;;;;;;;;;5029943;28;20250;-76
2021/11/14 13:53:28;;;;;;;;;;;;;;;;;;5030298;28;19909;-76
2021/11/14 13:55:55;;;;;;;;;;;;;;;;;;5013261;28;19971;-78
2021/11/14 13:58:21;;;;;;;;;;;;;;;;;;5011034;28;19955;-77
2021/11/14 14:00:47;;;;;;;;;;;;;;;;;;5011290;28;19909;-76
2021/11/14 14:03:13;;;;;;;;;;;;;;;;;;5011471;28;20063;-76
2021/11/14 14:05:40;;;;;;;;;;;;;;;;;;5011602;28;19955;-77
2021/11/14 14:08:06;;;;;;;;;;;;;;;;;;5010880;28;20004;-76
2021/11/14 14:10:33;;;;;;;;;;;;;;;;;;5010448;28;19913;-76
2021/11/14 14:12:59;;;;;;;;;;;;;;;;;;5010424;28;19910;-78
2021/11/14 14:15:24;;;;;;;;;;;;;;;;;;5011050;28;19968;-78
2021/11/14 14:17:53;;;;;;;;;;;;;;;;;;5011231;28;20310;-78
2021/11/14 14:20:19;;;;;;;;;;;;;;;;;;5010829;28;20286;-78
2021/11/14 14:22:45;;;;;;;;;;;;;;;;;;5009920;28;19909;-78
2021/11/14 14:25:12;;;;;;;;;;;;;;;;;;5009988;28;19953;-76
2021/11/14 14:27:40;;;;;;;;;;;;;;;;;;5009261;28;19913;-78
2021/11/14 14:30:09;;;;;;;;;;;;;;;;;;5010449;28;19931;-77
2021/11/14 14:32:34;;;;;;;;;;;;;;;;;;5011048;28;19909;-76
2021/11/14 14:35:00;;;;;;;;;;;;;;;;;;5010736;28;20385;-77
2021/11/14 14:37:29;;;;;;;;;;;;;;;;;;5009902;28;19960;-78
2021/11/14 14:39:55;;;;;;;;;;;;;;;;;;5011559;28;20004;-77
2021/11/14 14:42:21;;;;;;;;;;;;;;;;;;5010249;28;20018;-77
2021/11/14 14:44:47;;;;;;;;;;;;;;;;;;5011622;28;19910;-77
2021/11/14 14:47:13;;;;;;;;;;;;;;;;;;5010856;28;19914;-77
2021/11/14 14:49:39;;;;;;;;;;;;;;;;;;5010028;28;20469;-76
2021/11/14 14:52:05;;;;;;;;;;;;;;;;;;5009009;28;19976;-77
2021/11/14 14:54:31;;;;;;;;;;;;;;;;;;4992748;28;20044;-77
2021/11/14 14:56:57;;;;;;;;;;;;;;;;;;5007752;28;19909;-78
2021/11/14 14:59:23;;;;;;;;;;;;;;;;;;5019081;28;20008;-76
2021/11/14 15:01:53;;;;;;;;;;;;;;;;;;5021416;28;20048;-78
2021/11/14 15:04:19;;;;;;;;;;;;;;;;;;5009466;28;19910;-78
2021/11/14 15:06:45;;;;;;;;;;;;;;;;;;5009431;28;19910;-75
2021/11/14 15:09:11;;;;;;;;;;;;;;;;;;4992575;28;20041;-78
2021/11/14 15:11:37;;;;;;;;;;;;;;;;;;5008049;28;20003;-76
2021/11/14 15:14:03;;;;;;;;;;;;;;;;;;5029226;28;19916;-77
2021/11/14 15:16:29;;;;;;;;;;;;;;;;;;5012273;28;19917;-77
2021/11/14 15:18:55;;;;;;;;;;;;;;;;;;5028877;28;19913;-78
2021/11/14 15:21:20;;;;;;;;;;;;;;;;;;5029718;28;19916;-75
2021/11/14 15:23:46;;;;;;;;;;;;;;;;;;5014887;28;19910;-76
2021/11/14 15:26:12;;;;;;;;;;;;;;;;;;5010584;28;19910;-77
2021/11/14 15:28:47;;;;;;;;;;;;;;;;;;5010114;28;19922;-76
2021/11/14 15:31:13;;;;;;;;;;;;;;;;;;5016801;28;19920;-76
2021/11/14 15:33:39;;;;;;;;;;;;;;;;;;5029576;28;19999;-77
2021/11/14 15:36:05;;;;;;;;;;;;;;;;;;5029309;28;20225;-78
2021/11/14 15:38:31;;;;;;;;;;;;;;;;;;5029814;28;20358;-79
2021/11/14 15:40:56;;;;;;;;;;;;;;;;;;5030796;28;19913;-78
2021/11/14 15:43:22;;;;;;;;;;;;;;;;;;5023272;28;20399;-75
2021/11/14 15:45:48;;;;;;;;;;;;;;;;;;5029384;28;19913;-79
2021/11/14 15:48:14;;;;;;;;;;;;;;;;;;5029837;28;19910;-78
2021/11/14 15:50:43;;;;;;;;;;;;;;;;;;5018778;28;20317;-78
2021/11/14 15:53:09;;;;;;;;;;;;;;;;;;5017655;28;19919;-77
2021/11/14 15:55:38;;;;;;;;;;;;;;;;;;5032227;28;19909;-78
2021/11/14 15:58:05;;;;;;;;;;;;;;;;;;5033541;28;20277;-78
2021/11/14 16:00:31;;;;;;;;;;;;;;;;;;5033452;28;19909;-77
2021/11/14 16:02:57;;;;;;;;;;;;;;;;;;5033018;28;19913;-78
2021/11/14 16:05:23;;;;;;;;;;;;;;;;;;5033149;28;19916;-77
2021/11/14 16:07:49;;;;;;;;;;;;;;;;;;5021751;28;19917;-77
2021/11/14 16:10:14;;;;;;;;;;;;;;;;;;5033114;28;19963;-77
2021/11/14 16:12:46;;;;;;;;;;;;;;;;;;5025673;28;19968;-76
2021/11/14 16:15:12;;;;;;;;;;;;;;;;;;5013965;28;19916;-75
2021/11/14 16:17:38;;;;;;;;;;;;;;;;;;5031773;28;19909;-76
2021/11/14 16:20:04;;;;;;;;;;;;;;;;;;5033123;28;20007;-77
2021/11/14 16:22:30;;;;;;;;;;;;;;;;;;5032852;28;19958;-77
2021/11/14 16:24:56;;;;;;;;;;;;;;;;;;5033094;28;19913;-78
2021/11/14 16:27:22;;;;;;;;;;;;;;;;;;5029237;28;19937;-75
2021/11/14 16:29:48;;;;;;;;;;;;;;;;;;5013411;28;20141;-78
2021/11/14 16:32:14;;;;;;;;;;;;;;;;;;5013251;28;20370;-78
2021/11/14 16:34:40;;;;;;;;;;;;;;;;;;5012741;28;19910;-77
2021/11/14 16:37:06;;;;;;;;;;;;;;;;;;5014164;28;20008;-76
2021/11/14 16:39:32;;;;;;;;;;;;;;;;;;5012651;28;19919;-79
2021/11/14 16:41:59;;;;;;;;;;;;;;;;;;5012834;28;19960;-76
2021/11/14 16:44:25;;;;;;;;;;;;;;;;;;5014402;28;19909;-77